createdAt,value
2022-10-14T00:01:57.668Z,24.80
2022-10-14T00:04:30.196Z,23.80
2022-10-14T00:07:01.952Z,23.90
2022-10-14T00:09:33.831Z,23.10
2022-10-14T00:12:05.801Z,24.40
2022-10-14T00:14:37.997Z,24.50
2022-10-14T00:17:10.174Z,23.50
2022-10-14T00:19:42.004Z,24.10
2022-10-14T00:22:13.987Z,23.90
2022-10-14T00:24:45.860Z,23.70
2022-10-14T00:27:18.227Z,24.40
2022-10-14T00:29:50.086Z,24.30
2022-10-14T00:32:22.145Z,24.20
2022-10-14T00:34:56.282Z,23.90
2022-10-14T00:37:28.233Z,23.80
2022-10-14T00:40:00.143Z,24.50
2022-10-14T00:42:36.397Z,23.10
2022-10-14T00:45:15.085Z,23.10
2022-10-14T00:47:48.432Z,24.10
2022-10-14T00:50:22.019Z,24.80
2022-10-14T00:52:57.238Z,23.70
2022-10-14T00:55:30.148Z,24.60
2022-10-14T00:58:03.745Z,24.70
2022-10-14T01:00:36.075Z,24.00
2022-10-14T01:03:19.469Z,25.00
2022-10-14T01:05:55.642Z,23.80
2022-10-14T01:08:36.010Z,23.30
2022-10-14T01:11:16.781Z,23.90
2022-10-14T01:13:56.833Z,25.40
2022-10-14T01:16:42.633Z,25.00
2022-10-14T01:19:38.337Z,25.60
2022-10-14T01:22:22.078Z,25.20
2022-10-14T01:25:08.608Z,24.90
2022-10-14T01:28:04.549Z,25.70
2022-10-14T01:30:40.799Z,25.10
2022-10-14T01:33:18.161Z,25.90
2022-10-14T01:36:00.234Z,25.90
2022-10-14T01:38:36.473Z,26.10
2022-10-14T01:41:13.106Z,28.10
2022-10-14T01:43:50.707Z,28.00
2022-10-14T01:46:26.719Z,26.60
2022-10-14T01:49:04.821Z,25.80
2022-10-14T01:51:42.406Z,25.40
2022-10-14T01:54:22.633Z,26.60
2022-10-14T01:56:57.362Z,26.50
2022-10-14T01:59:30.642Z,25.80
2022-10-14T02:02:02.522Z,25.90
2022-10-14T02:04:34.426Z,26.10
2022-10-14T02:07:12.626Z,27.30
2022-10-14T02:09:57.598Z,27.90
2022-10-14T02:12:41.674Z,26.30
2022-10-14T02:15:21.071Z,28.60
2022-10-14T02:17:58.758Z,27.80
2022-10-14T02:20:35.099Z,28.10
2022-10-14T02:23:14.561Z,27.90
2022-10-14T02:25:49.394Z,27.70
2022-10-14T02:28:24.565Z,27.20
2022-10-14T02:31:01.035Z,28.70
2022-10-14T02:33:38.408Z,29.20
2022-10-14T02:36:17.848Z,28.10
2022-10-14T02:38:51.181Z,28.20
2022-10-14T02:41:26.731Z,27.30
2022-10-14T02:43:58.749Z,27.50
2022-10-14T02:46:30.853Z,28.40
2022-10-14T02:49:03.070Z,29.90
2022-10-14T02:51:36.457Z,29.60
2022-10-14T02:54:08.580Z,27.50
2022-10-14T02:56:40.539Z,27.70
2022-10-14T02:59:12.664Z,29.50
2022-10-14T03:01:44.696Z,31.90
2022-10-14T03:04:16.890Z,35.00
2022-10-14T03:06:48.830Z,30.50
2022-10-14T03:09:23.185Z,28.90
2022-10-14T03:11:56.441Z,29.00
2022-10-14T03:14:29.352Z,29.80
2022-10-14T03:17:01.627Z,29.10
2022-10-14T03:19:34.904Z,29.60
2022-10-14T03:22:06.807Z,29.10
2022-10-14T03:24:39.945Z,28.50
2022-10-14T03:27:30.087Z,29.30
2022-10-14T03:30:07.352Z,30.20
2022-10-14T03:32:42.060Z,30.00
2022-10-14T03:35:32.607Z,30.60
2022-10-14T03:38:06.854Z,30.10
2022-10-14T03:40:39.331Z,29.80
2022-10-14T03:43:12.989Z,29.40
2022-10-14T03:45:52.399Z,29.40
2022-10-14T03:48:25.975Z,31.30
2022-10-14T03:51:01.712Z,31.40
2022-10-14T03:53:34.799Z,31.00
2022-10-14T03:56:08.047Z,30.80
2022-10-14T03:58:40.573Z,30.60
2022-10-14T04:01:16.387Z,31.60
2022-10-14T04:04:03.870Z,30.30
2022-10-14T04:06:35.852Z,30.40
2022-10-14T04:09:09.113Z,31.70
2022-10-14T04:11:43.714Z,31.50
2022-10-14T04:14:23.424Z,31.40
2022-10-14T04:16:55.533Z,33.90
2022-10-14T04:19:28.276Z,33.50
2022-10-14T04:22:02.717Z,32.90
2022-10-14T04:24:35.415Z,33.20
2022-10-14T04:27:07.557Z,34.40
2022-10-14T04:29:45.291Z,35.00
2022-10-14T04:32:22.649Z,34.20
2022-10-14T04:34:58.827Z,35.30
2022-10-14T04:37:32.492Z,35.80
2022-10-14T04:40:13.540Z,35.40
2022-10-14T04:42:49.069Z,36.20
2022-10-14T04:45:26.393Z,36.50
2022-10-14T04:48:03.743Z,35.80
2022-10-14T04:50:39.698Z,37.00
2022-10-14T04:53:34.598Z,37.10
2022-10-14T04:56:15.777Z,37.60
2022-10-14T04:58:56.440Z,36.00
2022-10-14T05:01:35.929Z,36.70
2022-10-14T05:04:08.053Z,36.50
2022-10-14T05:06:41.848Z,37.30
2022-10-14T05:09:15.209Z,37.90
2022-10-14T05:11:48.117Z,38.40
2022-10-14T05:14:22.825Z,39.70
2022-10-14T05:17:01.242Z,39.30
2022-10-14T05:19:34.672Z,38.30
2022-10-14T05:22:07.057Z,40.20
2022-10-14T05:24:43.813Z,39.40
2022-10-14T05:27:16.409Z,40.90
2022-10-14T05:29:49.365Z,40.50
2022-10-14T05:32:21.563Z,45.20
2022-10-14T05:34:56.421Z,46.30
2022-10-14T05:37:32.896Z,48.20
2022-10-14T05:40:05.826Z,45.30
2022-10-14T05:42:39.988Z,43.00
2022-10-14T05:45:12.890Z,42.20
2022-10-14T05:47:49.811Z,44.00
2022-10-14T05:50:23.166Z,43.60
2022-10-14T05:52:55.642Z,43.70
2022-10-14T05:55:31.479Z,43.80
2022-10-14T05:58:06.224Z,45.70
2022-10-14T06:00:41.069Z,43.20
2022-10-14T06:03:15.548Z,43.80
2022-10-14T06:05:48.872Z,42.60
2022-10-14T06:08:21.310Z,42.50
2022-10-14T06:10:53.186Z,41.70
2022-10-14T06:13:25.205Z,41.70
2022-10-14T06:15:57.274Z,41.80
2022-10-14T06:18:29.037Z,41.50
2022-10-14T06:21:00.860Z,41.50
2022-10-14T06:23:33.495Z,40.20
2022-10-14T06:26:09.791Z,40.10
2022-10-14T06:28:42.116Z,39.60
2022-10-14T06:31:13.912Z,40.30
2022-10-14T06:33:46.109Z,41.40
2022-10-14T06:36:18.267Z,41.90
2022-10-14T06:38:50.002Z,39.80
2022-10-14T06:41:22.511Z,41.00
2022-10-14T06:43:54.279Z,39.90
2022-10-14T06:46:26.478Z,39.80
2022-10-14T06:48:58.225Z,42.10
2022-10-14T06:51:30.298Z,45.50
2022-10-14T06:54:02.164Z,55.40
2022-10-14T06:56:34.685Z,44.50
2022-10-14T06:59:06.893Z,44.30
2022-10-14T07:01:39.307Z,45.30
2022-10-14T07:04:11.237Z,44.00
2022-10-14T07:06:45.673Z,42.70
2022-10-14T07:09:17.451Z,43.40
2022-10-14T07:11:49.207Z,43.00
2022-10-14T07:14:20.989Z,46.00
2022-10-14T07:16:53.338Z,45.90
2022-10-14T07:19:25.196Z,44.60
2022-10-14T07:21:57.063Z,65.50
2022-10-14T07:24:28.943Z,48.60
2022-10-14T07:29:38.985Z,47.90
2022-10-14T07:32:11.028Z,44.90
2022-10-14T07:34:42.876Z,43.30
2022-10-14T07:37:14.765Z,53.00
2022-10-14T07:39:46.698Z,62.40
2022-10-14T07:44:55.487Z,43.60
2022-10-14T07:47:27.455Z,43.60
2022-10-14T07:49:59.412Z,43.30
2022-10-14T07:52:31.580Z,48.60
2022-10-14T07:55:07.451Z,51.60
2022-10-14T07:57:39.270Z,81.30
2022-10-14T08:00:12.763Z,56.80
2022-10-14T08:02:44.556Z,57.10
2022-10-14T08:05:37.241Z,55.00
2022-10-14T08:08:08.540Z,42.50
2022-10-14T08:10:41.993Z,44.00
2022-10-14T08:13:14.161Z,75.80
2022-10-14T08:15:46.080Z,54.90
2022-10-14T08:18:17.928Z,44.50
2022-10-14T08:20:49.963Z,43.20
2022-10-14T08:23:22.013Z,51.80
2022-10-14T08:25:53.975Z,109.70
2022-10-14T08:28:26.517Z,48.70
2022-10-14T08:30:58.345Z,97.50
2022-10-14T08:33:30.297Z,54.80
2022-10-14T08:36:02.172Z,50.00
2022-10-14T08:38:34.117Z,81.90
2022-10-14T08:41:17.139Z,54.00
2022-10-14T08:43:54.631Z,50.60
2022-10-14T08:46:30.222Z,48.50
2022-10-14T08:49:08.846Z,42.60
2022-10-14T08:51:42.128Z,42.30
2022-10-14T08:54:21.649Z,42.50
2022-10-14T08:56:54.066Z,46.60
2022-10-14T08:59:28.236Z,43.40
2022-10-14T09:02:05.471Z,46.40
2022-10-14T09:04:38.332Z,54.40
2022-10-14T09:07:16.775Z,77.00
2022-10-14T09:09:52.684Z,52.80
2022-10-14T09:12:27.865Z,49.50
2022-10-14T09:15:10.194Z,60.50
2022-10-14T09:17:45.727Z,53.50
2022-10-14T09:20:21.486Z,48.10
2022-10-14T09:23:03.494Z,42.80
2022-10-14T09:25:38.712Z,45.50
2022-10-14T09:28:11.242Z,41.40
2022-10-14T09:30:43.406Z,41.70
2022-10-14T09:33:20.971Z,43.80
2022-10-14T09:35:52.772Z,38.90
2022-10-14T09:38:29.011Z,42.30
2022-10-14T09:41:01.461Z,36.40
2022-10-14T09:43:33.287Z,36.00
2022-10-14T09:46:07.999Z,35.20
2022-10-14T09:48:44.942Z,35.10
2022-10-14T09:51:24.174Z,35.00
2022-10-14T09:53:58.320Z,34.70
2022-10-14T09:56:37.474Z,35.80
2022-10-14T09:59:22.419Z,35.80
2022-10-14T10:01:59.405Z,35.60
2022-10-14T10:04:37.412Z,35.50
2022-10-14T10:07:27.846Z,34.80
2022-10-14T10:10:01.258Z,34.30
2022-10-14T10:12:35.107Z,34.40
2022-10-14T10:15:18.616Z,37.40
2022-10-14T10:17:51.730Z,35.40
2022-10-14T10:20:33.392Z,35.40
2022-10-14T10:23:26.142Z,34.50
2022-10-14T10:26:14.963Z,34.50
2022-10-14T10:28:50.681Z,36.30
2022-10-14T10:34:37.183Z,34.60
2022-10-14T10:37:25.336Z,35.90
2022-10-14T10:40:11.417Z,36.80
2022-10-14T10:42:52.319Z,38.40
2022-10-14T10:45:39.081Z,43.60
2022-10-14T10:48:18.569Z,35.40
2022-10-14T10:50:58.515Z,33.60
2022-10-14T10:53:55.559Z,33.10
2022-10-14T10:56:39.937Z,33.40
2022-10-14T10:59:37.507Z,32.70
2022-10-14T11:02:55.213Z,32.20
2022-10-14T11:05:40.183Z,30.90
2022-10-14T11:08:45.348Z,31.70
2022-10-14T11:11:43.903Z,30.90
2022-10-14T11:14:28.849Z,30.40
2022-10-14T11:17:08.260Z,29.40
2022-10-14T11:19:51.396Z,28.60
2022-10-14T11:22:40.078Z,28.60
2022-10-14T11:25:23.718Z,29.20
2022-10-14T11:28:06.513Z,27.60
2022-10-14T11:30:46.571Z,25.90
2022-10-14T11:33:39.007Z,25.60
2022-10-14T11:36:25.212Z,31.40
2022-10-14T11:39:16.360Z,27.40
2022-10-14T11:42:11.302Z,26.50
2022-10-14T11:44:45.469Z,26.00
2022-10-14T11:47:22.463Z,27.90
2022-10-14T11:50:12.569Z,27.40
2022-10-14T11:52:50.727Z,27.50
2022-10-14T11:55:28.992Z,26.30
2022-10-14T11:58:06.334Z,26.20
2022-10-14T12:00:40.219Z,28.30
2022-10-14T12:03:22.501Z,27.10
2022-10-14T12:06:02.485Z,38.60
2022-10-14T12:08:41.362Z,30.10
2022-10-14T12:11:23.418Z,27.50
2022-10-14T12:14:01.853Z,28.20
2022-10-14T12:16:34.356Z,28.60
2022-10-14T12:19:09.557Z,25.60
2022-10-14T12:21:50.662Z,28.90
2022-10-14T12:24:26.729Z,28.30
2022-10-14T12:27:01.961Z,28.10
2022-10-14T12:29:37.047Z,28.40
2022-10-14T12:32:24.278Z,28.60
2022-10-14T12:34:57.856Z,27.60
2022-10-14T12:40:31.354Z,26.50
2022-10-14T12:43:19.135Z,26.90
2022-10-14T12:45:57.673Z,26.90
2022-10-14T12:48:32.046Z,27.80
2022-10-14T12:51:14.679Z,27.70
2022-10-14T12:54:15.611Z,28.00
2022-10-14T12:56:59.866Z,29.40
2022-10-14T12:59:36.455Z,34.20
2022-10-14T13:02:29.400Z,28.80
2022-10-14T13:05:06.516Z,27.00
2022-10-14T13:07:48.956Z,27.00
2022-10-14T13:10:47.284Z,27.40
2022-10-14T13:13:59.225Z,26.80
2022-10-14T13:16:59.488Z,27.10
2022-10-14T13:19:49.566Z,25.40
2022-10-14T13:22:43.685Z,25.10
2022-10-14T13:25:21.740Z,25.70
2022-10-14T13:28:03.921Z,25.10
2022-10-14T13:30:45.231Z,24.80
2022-10-14T13:33:23.747Z,23.90
2022-10-14T13:36:06.766Z,24.50
2022-10-14T13:38:39.949Z,29.80
2022-10-14T13:41:28.367Z,21.80
2022-10-14T13:44:03.812Z,21.80
2022-10-14T13:46:40.393Z,21.40
2022-10-14T13:49:20.616Z,23.10
2022-10-14T13:51:54.457Z,21.60
2022-10-14T13:54:27.792Z,22.10
2022-10-14T14:02:53.369Z,21.80
2022-10-14T14:05:36.168Z,22.20
2022-10-14T14:08:36.685Z,21.30
2022-10-14T14:11:23.092Z,21.80
2022-10-14T14:14:04.188Z,22.00
2022-10-14T14:16:39.341Z,21.40
2022-10-14T14:19:21.128Z,20.50
2022-10-14T14:22:06.016Z,20.70
2022-10-14T14:24:37.901Z,21.20
2022-10-14T14:27:14.663Z,21.10
2022-10-14T14:29:49.514Z,20.00
2022-10-14T14:32:24.366Z,19.90
2022-10-14T14:34:57.246Z,19.90
2022-10-14T14:37:48.124Z,19.60
2022-10-14T14:40:25.412Z,19.30
2022-10-14T14:43:01.927Z,46.80
2022-10-14T14:45:36.401Z,35.60
2022-10-14T14:48:09.446Z,21.90
2022-10-14T14:50:44.083Z,21.50
2022-10-14T14:53:18.280Z,20.30
2022-10-14T14:56:03.745Z,21.00
2022-10-14T14:58:39.600Z,22.30
2022-10-14T15:01:23.139Z,23.90
2022-10-14T15:04:12.685Z,27.20
2022-10-14T15:06:57.436Z,30.10
2022-10-14T15:09:39.744Z,40.30
2022-10-14T15:12:18.872Z,44.30
2022-10-14T15:14:53.263Z,39.50
2022-10-14T15:17:31.967Z,34.00
2022-10-14T15:20:30.056Z,27.70
2022-10-14T15:23:03.478Z,24.40
2022-10-14T15:25:35.240Z,23.90
2022-10-14T15:28:27.151Z,23.20
2022-10-14T15:31:03.121Z,24.50
2022-10-14T15:33:37.558Z,26.40
2022-10-14T15:36:13.435Z,27.70
2022-10-14T15:38:45.156Z,25.70
2022-10-14T15:41:16.966Z,23.20
2022-10-14T15:43:48.756Z,24.70
2022-10-14T15:46:38.926Z,23.80
2022-10-14T15:49:16.846Z,23.60
2022-10-14T15:51:48.783Z,23.40
2022-10-14T15:54:21.346Z,23.10
2022-10-14T15:56:53.216Z,23.80
2022-10-14T15:59:28.081Z,23.10
2022-10-14T16:02:00.025Z,23.90
2022-10-14T16:05:00.600Z,23.60
2022-10-14T16:07:34.213Z,33.60
2022-10-14T16:10:13.094Z,28.90
2022-10-14T16:12:46.068Z,26.30
2022-10-14T16:15:27.470Z,33.50
2022-10-14T16:17:59.457Z,30.20
2022-10-14T16:20:31.863Z,28.80
2022-10-14T16:23:04.776Z,25.70
2022-10-14T16:25:44.541Z,24.70
2022-10-14T16:28:18.177Z,25.80
2022-10-14T16:30:51.278Z,25.70
2022-10-14T16:33:49.562Z,25.20
2022-10-14T16:36:23.331Z,25.00
2022-10-14T16:38:55.691Z,25.20
2022-10-14T16:41:28.351Z,25.00
2022-10-14T16:44:00.465Z,24.60
2022-10-14T16:46:50.059Z,24.60
2022-10-14T16:49:22.271Z,27.20
2022-10-14T16:51:54.093Z,27.90
2022-10-14T16:54:26.758Z,26.50
2022-10-14T16:57:01.445Z,24.60
2022-10-14T16:59:34.762Z,25.60
2022-10-14T17:02:10.546Z,25.60
2022-10-14T17:04:46.648Z,25.90
2022-10-14T17:07:19.105Z,30.80
2022-10-14T17:09:51.116Z,27.50
2022-10-14T17:12:23.680Z,25.70
2022-10-14T17:14:56.946Z,24.40
2022-10-14T17:17:29.143Z,24.20
2022-10-14T17:20:01.074Z,26.50
2022-10-14T17:22:34.393Z,25.20
2022-10-14T17:25:10.697Z,23.20
2022-10-14T17:27:43.215Z,22.10
2022-10-14T17:30:15.931Z,21.60
2022-10-14T17:32:47.792Z,22.00
2022-10-14T17:35:20.176Z,22.00
2022-10-14T17:37:52.124Z,23.30
2022-10-14T17:40:24.017Z,21.80
2022-10-14T17:42:55.797Z,24.00
2022-10-14T17:45:28.151Z,26.30
2022-10-14T17:47:59.921Z,27.40
2022-10-14T17:50:32.017Z,23.60
2022-10-14T17:53:03.875Z,22.90
2022-10-14T17:55:37.585Z,23.70
2022-10-14T17:58:09.892Z,23.20
2022-10-14T18:00:42.064Z,23.30
2022-10-14T18:03:13.892Z,25.40
2022-10-14T18:05:48.778Z,25.50
2022-10-14T18:08:21.084Z,24.80
2022-10-14T18:10:53.386Z,25.30
2022-10-14T18:13:25.474Z,44.10
2022-10-14T18:15:57.362Z,34.90
2022-10-14T18:18:31.027Z,32.30
2022-10-14T18:21:04.891Z,25.20
2022-10-14T18:23:39.090Z,25.00
2022-10-14T18:26:13.545Z,26.40
2022-10-14T18:28:50.129Z,26.10
2022-10-14T18:31:24.702Z,25.60
2022-10-14T18:33:58.724Z,25.70
2022-10-14T18:36:33.156Z,26.00
2022-10-14T18:39:07.810Z,26.30
2022-10-14T18:41:44.591Z,25.90
2022-10-14T18:44:16.537Z,30.80
2022-10-14T18:46:48.699Z,31.70
2022-10-14T18:49:20.475Z,28.40
2022-10-14T18:51:55.007Z,30.00
2022-10-14T18:54:27.125Z,31.10
2022-10-14T18:56:59.828Z,34.90
2022-10-14T18:59:32.009Z,32.60
2022-10-14T19:02:06.161Z,30.70
2022-10-14T19:04:37.932Z,29.00
2022-10-14T19:07:09.736Z,29.10
2022-10-14T19:09:41.798Z,28.80
2022-10-14T19:12:31.120Z,28.90
2022-10-14T19:15:02.871Z,29.20
2022-10-14T19:17:34.717Z,29.50
2022-10-14T19:20:08.585Z,28.70
2022-10-14T19:22:44.895Z,30.30
2022-10-14T19:25:17.522Z,32.30
2022-10-14T19:27:49.434Z,31.70
2022-10-14T19:30:21.607Z,33.20
2022-10-14T19:32:53.664Z,32.90
2022-10-14T19:35:25.518Z,34.30
2022-10-14T19:37:57.423Z,36.00
2022-10-14T19:40:29.436Z,35.90
2022-10-14T19:43:01.415Z,36.10
2022-10-14T19:45:33.174Z,36.80
2022-10-14T19:48:06.069Z,38.90
2022-10-14T19:50:41.056Z,38.90
2022-10-14T19:53:13.224Z,39.20
2022-10-14T19:55:45.605Z,38.10
2022-10-14T19:58:17.670Z,41.20
2022-10-14T20:00:49.672Z,40.10
2022-10-14T20:03:21.528Z,40.40
2022-10-14T20:06:01.966Z,39.70
2022-10-14T20:08:35.263Z,41.10
2022-10-14T20:11:08.985Z,38.00
2022-10-14T20:13:41.551Z,41.30
2022-10-14T20:16:14.644Z,41.20
2022-10-14T20:18:46.669Z,40.20
2022-10-14T20:21:19.069Z,41.70
2022-10-14T20:23:53.020Z,42.40
2022-10-14T20:29:01.753Z,41.30
2022-10-14T20:31:33.790Z,42.20
2022-10-14T20:34:10.434Z,42.50
2022-10-14T20:36:43.168Z,46.20
2022-10-14T20:39:15.201Z,47.00
2022-10-14T20:41:47.085Z,48.30
2022-10-14T20:44:23.659Z,47.80
2022-10-14T20:46:56.121Z,47.40
2022-10-14T20:49:28.275Z,46.10
2022-10-14T20:52:00.034Z,45.70
2022-10-14T20:54:31.800Z,46.70
2022-10-14T20:57:03.743Z,45.40
2022-10-14T20:59:40.306Z,46.20
2022-10-14T21:02:18.096Z,48.00
2022-10-14T21:04:52.498Z,49.20
2022-10-14T21:07:27.268Z,48.00
2022-10-14T21:09:59.162Z,49.20
2022-10-14T21:12:30.950Z,48.60
2022-10-14T21:15:02.773Z,47.90
2022-10-14T21:17:34.607Z,49.70
2022-10-14T21:20:07.817Z,50.50
2022-10-14T21:22:39.576Z,50.30
2022-10-14T21:25:11.571Z,52.30
2022-10-14T21:27:43.554Z,50.90
2022-10-14T21:30:16.450Z,50.90
2022-10-14T21:32:48.194Z,50.60
2022-10-14T21:35:20.135Z,51.80
2022-10-14T21:37:54.377Z,52.40
2022-10-14T21:40:26.272Z,54.80
2022-10-14T21:42:57.983Z,55.30
2022-10-14T21:45:29.857Z,54.40
2022-10-14T21:48:01.704Z,54.90
2022-10-14T21:50:33.460Z,55.10
2022-10-14T21:53:11.380Z,56.20
2022-10-14T21:55:52.709Z,56.90
2022-10-14T21:58:24.788Z,58.20
2022-10-14T22:01:04.134Z,58.00
2022-10-14T22:03:37.057Z,58.50
2022-10-14T22:06:11.341Z,58.80
2022-10-14T22:08:45.254Z,59.50
2022-10-14T22:11:22.347Z,59.10
2022-10-14T22:13:55.439Z,61.30
2022-10-14T22:16:29.176Z,61.10
2022-10-14T22:19:03.937Z,60.20
2022-10-14T22:21:38.084Z,62.60
2022-10-14T22:24:11.126Z,63.20
2022-10-14T22:26:43.777Z,66.70
2022-10-14T22:29:17.716Z,68.90
2022-10-14T22:31:49.767Z,68.00
2022-10-14T22:34:21.497Z,68.20
2022-10-14T22:36:53.247Z,68.70
2022-10-14T22:39:27.225Z,66.50
2022-10-14T22:42:00.147Z,67.50
2022-10-14T22:44:31.981Z,67.90
2022-10-14T22:47:06.825Z,67.40
2022-10-14T22:49:38.827Z,67.60
2022-10-14T22:52:10.772Z,68.40
2022-10-14T22:54:42.521Z,67.10
2022-10-14T22:57:14.599Z,65.20
2022-10-14T22:59:46.739Z,65.50
2022-10-14T23:02:18.541Z,64.70
2022-10-14T23:04:50.385Z,65.50
2022-10-14T23:07:22.331Z,67.70
2022-10-14T23:09:54.117Z,67.00
2022-10-14T23:12:26.716Z,65.50
2022-10-14T23:14:58.624Z,65.00
2022-10-14T23:17:31.925Z,64.20
2022-10-14T23:20:03.740Z,65.10
2022-10-14T23:22:37.208Z,64.40
2022-10-14T23:25:10.638Z,62.50
2022-10-14T23:27:42.542Z,61.90
2022-10-14T23:30:14.828Z,62.60
2022-10-14T23:32:46.589Z,62.20
2022-10-14T23:35:18.390Z,61.00
2022-10-14T23:37:50.189Z,60.40
2022-10-14T23:40:22.138Z,60.30
2022-10-14T23:42:54.031Z,61.20
2022-10-14T23:45:26.934Z,60.00
2022-10-14T23:48:01.959Z,62.90
2022-10-14T23:50:33.704Z,58.70
2022-10-14T23:53:05.559Z,58.60
2022-10-14T23:55:37.680Z,58.70
2022-10-14T23:58:10.123Z,58.30
